Vladivostok International Airport
UHWW : now visible

Aeroporto :











RITROVATECI SU...

 
LOGIN :

Iscrizione | Disclaimer

   EN    FR    IT 

 









Sommario :    VFR   VFR Marginale   IFR   IFR Intensivo   IFR Molto Intensivo
Visibilità : 
Base nubi : 
>= 8 km
>= 3000ft
5 / 8 km
1000 / 3000 ft
1500m / 5 km
500 / 1000 ft
800 / 1500m
200 / 500 ft
< 800m
< 200 ft
Simboli :   Temporali  Nebbia  Neve Forte  Precipitazioni Forti  Vento > 20 kt






- Altitudine del aeroporto : 46 ft
- Codice IATA : VVO


UHWW - Vladivostok International

ULTIMO METAR :
  • 261130Z 00000MPS 9999 NSC M09/M10 Q1031 R25L/810060 NOSIG RMK QFE772

METARs OBSOLETI :
  • 261100Z VRB01MPS 9000 NSC M09/M11 Q1031 R25L/810060 NOSIG RMK QFE772
  • 261030Z 00000MPS 9999 NSC M08/M09 Q1030 R25L/810060 NOSIG RMK QFE772
  • 261000Z VRB01MPS 9999 NSC M06/M08 Q1030 R25L/810060 NOSIG RMK QFE771
  • 260930Z 36001MPS 9999 NSC M06/M09 Q1030 R25L/810060 NOSIG RMK QFE771
  • 260900Z 00000MPS 9000 NSC M05/M09 Q1029 R25L/810060 NOSIG RMK QFE771

TAF TAF UHWW
Valido dal 26 a 12 ore il 27 a 12 ore UTC


261100Z 2612/2712 03003MPS 9999 NSC
BECMG 2622/2624 35003MPS SCT030CB
TEMPO 2700/2709 35009MPS 5000 -SHSN BKN016CB
FIR UHWW / Asia



MetMap, La meteo Aeronautica in un colpo d'occhio ! - Copyright ORBIFLY Dicembre 2007 - Disclaimer

ORBIFLY MET'MAP TEAM :

Programmazione e sviluppo : Alexandra Zaïnal
Concezione : Baudouin d'Aumeries
Aiuto per la programmazione : Marc-Olivier Méhu
Supporto tecnico e logistico : Manuel Goepfert
Aiuto per la traduzione : Arnaldo La Scala

Contatto : metmap@orbifly.com




FONTI E CREDITI :

   NOAA       Earth
Advisory